Terminal Aerodrome Forecast
Issued by NWS Upton, NY

Home | Current Version | Previous Version | Text Only | Print | Product List | Glossary On
Versions: 1 2 3 4 5 6 7 8 9 10 11 12 13 14 15 16 17 18 19 20 21 22 23 24 25 26 27 28 29 30 31 32
000
FTUS41 KOKX 110837 AAA
TAFISP
TAF AMD
KISP 110837Z 1109/1206 24009KT P6SM SCT030 OVC050
      TEMPO 1110/1112 24009KT 6SM -SHSN OVC030
     FM111200 26010KT P6SM BKN050
     FM111500 28012G18KT P6SM SCT050 SCT250
     FM112100 28007KT P6SM FEW030 SCT250
     FM120100 VRB03KT P6SM BKN250=

USA.gov is the U.S. government's official web portal to all federal, state and local government web resources and services.